createdAt,value
2018-04-17T00:02:13.172Z,8.05
2018-04-17T00:04:41.767Z,8.07
2018-04-17T00:07:10.157Z,8.04
2018-04-17T00:09:38.535Z,8.00
2018-04-17T00:12:07.010Z,7.93
2018-04-17T00:14:35.365Z,7.91
2018-04-17T00:17:04.506Z,7.89
2018-04-17T00:19:32.893Z,7.87
2018-04-17T00:22:01.288Z,7.92
2018-04-17T00:24:29.674Z,7.86
2018-04-17T00:26:58.066Z,7.88
2018-04-17T00:29:26.441Z,8.01
2018-04-17T00:31:54.995Z,8.00
2018-04-17T00:34:23.434Z,7.99
2018-04-17T00:36:51.849Z,7.92
2018-04-17T00:39:20.222Z,7.86
2018-04-17T00:41:48.610Z,7.78
2018-04-17T00:44:16.986Z,7.72
2018-04-17T00:46:46.130Z,7.73
2018-04-17T00:49:14.531Z,7.67
2018-04-17T00:51:42.920Z,7.62
2018-04-17T00:54:11.298Z,7.55
2018-04-17T00:56:39.695Z,7.61
2018-04-17T00:59:08.083Z,7.64
2018-04-17T01:01:36.458Z,7.69
2018-04-17T01:04:04.834Z,7.61
2018-04-17T01:06:33.282Z,7.57
2018-04-17T01:09:01.662Z,7.53
2018-04-17T01:11:30.042Z,7.48
2018-04-17T01:13:58.418Z,7.46
2018-04-17T01:16:26.784Z,7.42
2018-04-17T01:18:55.933Z,7.39
2018-04-17T01:21:24.318Z,7.35
2018-04-17T01:23:52.649Z,7.33
2018-04-17T01:26:21.031Z,7.28
2018-04-17T01:28:50.150Z,7.23
2018-04-17T01:31:18.538Z,7.22
2018-04-17T01:33:46.907Z,7.23
2018-04-17T01:36:15.282Z,7.17
2018-04-17T01:38:44.426Z,7.25
2018-04-17T01:43:40.142Z,7.25
2018-04-17T01:46:08.530Z,7.23
2018-04-17T01:48:36.917Z,7.16
2018-04-17T01:51:05.305Z,7.10
2018-04-17T01:53:33.666Z,7.00
2018-04-17T01:56:02.052Z,6.98
2018-04-17T01:58:30.442Z,6.92
2018-04-17T02:00:58.809Z,6.93
2018-04-17T02:03:27.255Z,6.90
2018-04-17T02:05:55.632Z,6.88
2018-04-17T02:08:24.013Z,6.85
2018-04-17T02:10:52.403Z,6.92
2018-04-17T02:13:20.785Z,6.91
2018-04-17T02:15:49.174Z,6.90
2018-04-17T02:18:17.566Z,6.83
2018-04-17T02:20:46.710Z,6.82
2018-04-17T02:23:15.155Z,6.75
2018-04-17T02:25:44.326Z,6.75
2018-04-17T02:28:12.690Z,6.73
2018-04-17T02:30:41.057Z,6.67
2018-04-17T02:33:09.471Z,6.65
2018-04-17T02:35:37.841Z,6.64
2018-04-17T02:38:06.234Z,6.61
2018-04-17T02:40:34.628Z,6.58
2018-04-17T02:43:02.998Z,6.61
2018-04-17T02:45:31.380Z,6.57
2018-04-17T02:47:59.755Z,6.52
2018-04-17T02:50:28.137Z,6.49
2018-04-17T02:52:56.497Z,6.54
2018-04-17T02:55:24.902Z,6.56
2018-04-17T02:57:53.271Z,6.65
2018-04-17T03:00:21.721Z,6.59
2018-04-17T03:02:50.879Z,6.61
2018-04-17T03:05:19.233Z,6.56
2018-04-17T03:07:47.634Z,6.52
2018-04-17T03:10:16.013Z,6.71
2018-04-17T03:12:44.390Z,6.69
2018-04-17T03:15:12.755Z,6.87
2018-04-17T03:17:41.133Z,6.95
2018-04-17T03:20:09.595Z,6.86
2018-04-17T03:22:38.743Z,6.81
2018-04-17T03:25:07.138Z,6.69
2018-04-17T03:27:35.520Z,6.61
2018-04-17T03:30:03.906Z,6.55
2018-04-17T03:32:32.284Z,6.54
2018-04-17T03:35:00.674Z,6.53
2018-04-17T03:37:29.034Z,6.46
2018-04-17T03:39:57.427Z,6.44
2018-04-17T03:42:25.820Z,6.44
2018-04-17T03:44:54.181Z,6.47
2018-04-17T03:47:22.556Z,6.47
2018-04-17T03:49:50.938Z,6.45
2018-04-17T03:52:19.368Z,6.49
2018-04-17T03:54:47.778Z,6.48
2018-04-17T03:57:16.932Z,6.43
2018-04-17T03:59:45.323Z,6.43
2018-04-17T04:02:13.746Z,6.43
2018-04-17T04:04:42.915Z,6.45
2018-04-17T04:07:11.342Z,6.46
2018-04-17T04:09:39.721Z,6.47
2018-04-17T04:12:08.088Z,6.57
2018-04-17T04:14:37.248Z,6.56
2018-04-17T04:17:23.349Z,6.65
2018-04-17T04:20:09.689Z,6.72
2018-04-17T04:22:56.561Z,6.67
2018-04-17T04:25:52.650Z,6.63
2018-04-17T04:28:21.206Z,6.67
2018-04-17T04:30:49.674Z,6.59
2018-04-17T04:33:18.835Z,6.56
2018-04-17T04:35:47.218Z,6.56
2018-04-17T04:38:15.642Z,6.65
2018-04-17T04:40:44.794Z,6.83
2018-04-17T04:43:13.178Z,7.04
2018-04-17T04:45:42.363Z,7.35
2018-04-17T04:48:10.837Z,7.51
2018-04-17T04:50:40.070Z,7.54
2018-04-17T04:53:08.457Z,7.61
2018-04-17T04:55:36.886Z,7.68
2018-04-17T04:58:05.291Z,7.65
2018-04-17T05:00:33.673Z,7.71
2018-04-17T05:03:02.074Z,7.82
2018-04-17T05:05:30.529Z,7.86
2018-04-17T05:07:59.804Z,7.93
2018-04-17T05:10:29.591Z,8.08
2018-04-17T05:12:57.998Z,8.22
2018-04-17T05:15:26.419Z,8.27
2018-04-17T05:17:54.831Z,8.39
2018-04-17T05:20:23.290Z,8.37
2018-04-17T05:22:51.667Z,8.37
2018-04-17T05:25:20.053Z,8.35
2018-04-17T05:27:48.437Z,8.31
2018-04-17T05:30:16.850Z,8.37
2018-04-17T05:32:45.254Z,8.52
2018-04-17T05:35:13.677Z,8.59
2018-04-17T05:37:42.075Z,8.82
2018-04-17T05:40:10.511Z,9.00
2018-04-17T05:42:38.878Z,9.26
2018-04-17T05:45:07.326Z,9.49
2018-04-17T05:47:35.774Z,9.73
2018-04-17T05:50:04.952Z,10.00
2018-04-17T05:52:33.337Z,10.22
2018-04-17T05:55:01.811Z,10.24
2018-04-17T05:57:30.214Z,10.40
2018-04-17T05:59:58.640Z,10.61
2018-04-17T06:02:27.046Z,10.69
2018-04-17T06:04:55.442Z,10.95
2018-04-17T06:07:24.585Z,11.33
2018-04-17T06:09:53.751Z,11.58
2018-04-17T06:12:22.138Z,11.94
2018-04-17T06:14:50.561Z,12.06
2018-04-17T06:17:18.938Z,12.10
2018-04-17T06:19:47.382Z,12.44
2018-04-17T06:22:15.777Z,12.70
2018-04-17T06:24:44.176Z,12.92
2018-04-17T06:27:13.317Z,13.32
2018-04-17T06:29:41.719Z,13.96
2018-04-17T06:32:10.117Z,13.98
2018-04-17T06:34:38.509Z,14.59
2018-04-17T06:37:06.873Z,15.50
2018-04-17T06:39:35.336Z,15.41
2018-04-17T06:42:03.819Z,15.66
2018-04-17T06:44:32.174Z,15.32
2018-04-17T06:47:01.321Z,15.93
2018-04-17T06:49:29.705Z,15.74
2018-04-17T06:51:58.109Z,16.24
2018-04-17T06:54:26.498Z,16.77
2018-04-17T06:56:54.894Z,17.19
2018-04-17T06:59:24.081Z,17.55
2018-04-17T07:01:52.494Z,18.32
2018-04-17T07:04:21.683Z,18.35
2018-04-17T07:06:50.855Z,19.16
2018-04-17T07:09:19.253Z,19.28
2018-04-17T07:11:47.685Z,18.95
2018-04-17T07:14:16.112Z,19.52
2018-04-17T07:16:44.490Z,19.80
2018-04-17T07:19:12.902Z,19.31
2018-04-17T07:21:42.059Z,19.83
2018-04-17T07:24:10.469Z,20.33
2018-04-17T07:26:38.897Z,19.58
2018-04-17T07:29:07.305Z,19.89
2018-04-17T07:31:35.740Z,20.11
2018-04-17T07:34:04.924Z,20.69
2018-04-17T07:36:33.311Z,21.00
2018-04-17T07:39:01.721Z,20.15
2018-04-17T07:41:30.102Z,20.31
2018-04-17T07:43:58.519Z,21.88
2018-04-17T07:46:26.909Z,21.57
2018-04-17T07:48:55.306Z,21.46
2018-04-17T07:51:23.706Z,21.44
2018-04-17T07:53:52.109Z,21.95
2018-04-17T07:56:21.294Z,22.75
2018-04-17T07:58:49.729Z,23.09
2018-04-17T08:01:18.153Z,24.45
2018-04-17T08:03:46.561Z,23.11
2018-04-17T08:06:15.722Z,22.75
2018-04-17T08:08:44.126Z,22.37
2018-04-17T08:11:12.511Z,22.10
2018-04-17T08:13:40.878Z,22.61
2018-04-17T08:16:09.291Z,23.98
2018-04-17T08:18:38.446Z,23.82
2018-04-17T08:21:06.830Z,22.41
2018-04-17T08:23:35.200Z,22.81
2018-04-17T08:26:03.636Z,23.16
2018-04-17T08:28:32.011Z,22.41
2018-04-17T08:31:00.419Z,24.10
2018-04-17T08:33:29.582Z,24.21
2018-04-17T08:35:57.978Z,24.36
2018-04-17T08:38:26.380Z,24.27
2018-04-17T08:40:55.531Z,24.32
2018-04-17T08:43:23.930Z,22.49
2018-04-17T08:45:52.313Z,23.51
2018-04-17T08:48:20.712Z,24.66
2018-04-17T08:50:49.104Z,24.56
2018-04-17T08:53:17.576Z,23.68
2018-04-17T08:55:45.981Z,24.35
2018-04-17T08:58:15.135Z,25.96
2018-04-17T09:00:43.555Z,26.44
2018-04-17T09:03:11.935Z,26.06
2018-04-17T09:05:40.318Z,25.46
2018-04-17T09:08:08.737Z,24.46
2018-04-17T09:10:38.936Z,24.78
2018-04-17T09:13:07.382Z,24.82
2018-04-17T09:15:35.788Z,24.89
2018-04-17T09:18:04.188Z,25.37
2018-04-17T09:20:33.345Z,25.61
2018-04-17T09:23:02.533Z,25.95
2018-04-17T09:25:30.961Z,25.55
2018-04-17T09:27:59.379Z,26.14
2018-04-17T09:30:27.797Z,24.84
2018-04-17T09:32:56.229Z,25.65
2018-04-17T09:35:25.852Z,24.53
2018-04-17T09:37:54.268Z,24.80
2018-04-17T09:40:22.674Z,25.08
2018-04-17T09:42:51.085Z,25.86
2018-04-17T09:45:20.290Z,25.90
2018-04-17T09:47:48.699Z,26.06
2018-04-17T09:50:17.082Z,27.28
2018-04-17T09:52:49.707Z,25.94
2018-04-17T09:55:18.107Z,26.66
2018-04-17T09:57:46.517Z,26.43
2018-04-17T10:00:15.686Z,26.68
2018-04-17T10:02:44.113Z,27.39
2018-04-17T10:05:12.521Z,27.41
2018-04-17T10:07:41.034Z,26.60
2018-04-17T10:10:09.486Z,26.76
2018-04-17T10:12:37.949Z,26.36
2018-04-17T10:15:07.397Z,26.00
2018-04-17T10:17:36.541Z,26.70
2018-04-17T10:20:11.323Z,26.25
2018-04-17T10:22:39.790Z,26.67
2018-04-17T10:25:08.197Z,26.08
2018-04-17T10:27:36.593Z,26.67
2018-04-17T10:30:04.969Z,26.36
2018-04-17T10:32:35.393Z,25.99
2018-04-17T10:35:03.785Z,25.98
2018-04-17T10:37:32.225Z,26.15
2018-04-17T10:40:00.635Z,26.45
2018-04-17T10:42:29.022Z,26.83
2018-04-17T10:44:57.409Z,26.77
2018-04-17T10:47:25.876Z,26.34
2018-04-17T10:49:54.272Z,26.19
2018-04-17T10:52:22.659Z,26.68
2018-04-17T10:54:51.107Z,26.73
2018-04-17T10:57:19.485Z,27.05
2018-04-17T10:59:47.943Z,26.84
2018-04-17T11:02:16.249Z,27.58
2018-04-17T11:04:44.775Z,27.38
2018-04-17T11:07:13.145Z,27.07
2018-04-17T11:09:41.535Z,26.57
2018-04-17T11:12:09.941Z,27.64
2018-04-17T11:14:38.333Z,27.40
2018-04-17T11:17:06.745Z,26.77
2018-04-17T11:19:35.902Z,25.46
2018-04-17T11:22:04.281Z,26.69
2018-04-17T11:24:32.675Z,25.99
2018-04-17T11:27:01.071Z,27.41
2018-04-17T11:29:29.463Z,27.55
2018-04-17T11:31:57.866Z,26.02
2018-04-17T11:34:27.101Z,26.93
2018-04-17T11:36:56.228Z,27.32
2018-04-17T11:39:24.607Z,27.10
2018-04-17T11:41:53.031Z,26.25
2018-04-17T11:44:22.222Z,26.34
2018-04-17T11:46:51.383Z,26.88
2018-04-17T11:49:19.790Z,25.84
2018-04-17T11:51:48.248Z,25.89
2018-04-17T11:54:16.641Z,25.62
2018-04-17T11:56:45.024Z,26.13
2018-04-17T11:59:13.412Z,25.49
2018-04-17T12:01:42.563Z,26.67
2018-04-17T12:04:10.955Z,25.91
2018-04-17T12:06:39.485Z,27.07
2018-04-17T12:09:09.368Z,27.01
2018-04-17T12:11:37.750Z,26.61
2018-04-17T12:14:06.150Z,27.57
2018-04-17T12:16:35.310Z,26.03
2018-04-17T12:19:04.461Z,26.53
2018-04-17T12:21:32.871Z,26.36
2018-04-17T12:24:01.274Z,26.31
2018-04-17T12:26:30.441Z,25.46
2018-04-17T12:28:58.846Z,26.11
2018-04-17T12:31:28.081Z,26.26
2018-04-17T12:33:56.465Z,26.51
2018-04-17T12:36:24.914Z,25.43
2018-04-17T12:38:54.086Z,26.32
2018-04-17T12:41:22.484Z,26.80
2018-04-17T12:43:50.861Z,26.18
2018-04-17T12:46:19.249Z,25.95
2018-04-17T12:48:47.686Z,26.57
2018-04-17T12:51:16.078Z,26.42
2018-04-17T12:53:44.472Z,26.60
2018-04-17T12:56:12.880Z,26.09
2018-04-17T12:58:41.441Z,25.26
2018-04-17T13:01:09.837Z,24.99
2018-04-17T13:03:38.231Z,26.20
2018-04-17T13:06:06.611Z,26.11
2018-04-17T13:08:35.100Z,26.49
2018-04-17T13:11:03.526Z,25.75
2018-04-17T13:13:32.663Z,27.21
2018-04-17T13:16:01.057Z,27.25
2018-04-17T13:18:29.457Z,26.59
2018-04-17T13:20:57.896Z,26.02
2018-04-17T13:23:26.287Z,27.57
2018-04-17T13:25:54.713Z,27.09
2018-04-17T13:28:23.094Z,28.09
2018-04-17T13:30:51.498Z,28.08
2018-04-17T13:33:20.690Z,26.62
2018-04-17T13:35:49.877Z,26.19
2018-04-17T13:38:18.278Z,27.21
2018-04-17T13:40:47.426Z,27.96
2018-04-17T13:43:15.937Z,28.05
2018-04-17T13:45:44.329Z,28.22
2018-04-17T13:48:12.713Z,26.86
2018-04-17T13:50:41.123Z,27.33
2018-04-17T13:53:10.275Z,27.49
2018-04-17T13:55:38.728Z,26.54
2018-04-17T13:58:07.119Z,25.62
2018-04-17T14:00:35.606Z,26.14
2018-04-17T14:03:03.994Z,27.15
2018-04-17T14:05:32.423Z,26.92
2018-04-17T14:08:00.855Z,26.57
2018-04-17T14:10:29.267Z,28.04
2018-04-17T14:12:57.746Z,27.16
2018-04-17T14:15:26.128Z,27.91
2018-04-17T14:17:54.517Z,27.96
2018-04-17T14:20:22.940Z,27.88
2018-04-17T14:22:51.369Z,27.33
2018-04-17T14:25:19.771Z,27.79
2018-04-17T14:27:48.200Z,28.24
2018-04-17T14:30:17.354Z,27.04
2018-04-17T14:32:45.770Z,27.68
2018-04-17T14:35:14.182Z,27.73
2018-04-17T14:37:43.432Z,28.22
2018-04-17T14:40:11.834Z,27.99
2018-04-17T14:42:40.253Z,29.06
2018-04-17T14:45:08.666Z,28.00
2018-04-17T14:47:37.082Z,28.80
2018-04-17T14:50:05.495Z,28.62
2018-04-17T14:52:34.674Z,28.84
2018-04-17T14:55:03.262Z,28.23
2018-04-17T14:57:31.646Z,28.46
2018-04-17T15:00:00.071Z,26.69
2018-04-17T15:02:28.463Z,27.05
2018-04-17T15:04:56.859Z,28.08
2018-04-17T15:07:25.264Z,27.75
2018-04-17T15:09:53.662Z,26.67
2018-04-17T15:12:22.061Z,26.57
2018-04-17T15:14:51.201Z,26.32
2018-04-17T15:17:19.578Z,27.51
2018-04-17T15:19:47.991Z,27.50
2018-04-17T15:22:16.373Z,28.14
2018-04-17T15:24:44.754Z,27.06
2018-04-17T15:27:13.157Z,28.11
2018-04-17T15:29:41.556Z,27.61
2018-04-17T15:32:10.730Z,27.32
2018-04-17T15:34:39.117Z,26.43
2018-04-17T15:37:07.511Z,26.76
2018-04-17T15:39:35.944Z,28.17
2018-04-17T15:42:04.374Z,28.38
2018-04-17T15:44:32.785Z,27.92
2018-04-17T15:47:01.946Z,28.74
2018-04-17T15:49:30.353Z,29.19
2018-04-17T15:51:58.733Z,26.80
2018-04-17T15:54:27.133Z,26.63
2018-04-17T15:56:56.283Z,27.80
2018-04-17T15:59:24.712Z,27.70
2018-04-17T16:01:53.863Z,28.51
2018-04-17T16:04:22.250Z,27.98
2018-04-17T16:06:50.678Z,26.69
2018-04-17T16:09:19.098Z,27.42
2018-04-17T16:11:47.505Z,27.56
2018-04-17T16:14:15.885Z,27.08
2018-04-17T16:16:44.257Z,27.24
2018-04-17T16:19:12.675Z,26.96
2018-04-17T16:21:41.119Z,27.78
2018-04-17T16:24:09.517Z,26.59
2018-04-17T16:26:37.890Z,25.91
2018-04-17T16:29:06.279Z,25.55
2018-04-17T16:31:34.666Z,26.02
2018-04-17T16:34:03.089Z,26.16
2018-04-17T16:36:31.473Z,25.29
2018-04-17T16:38:59.870Z,25.34
2018-04-17T16:41:29.092Z,24.83
2018-04-17T16:43:57.482Z,24.62
2018-04-17T16:46:25.913Z,25.08
2018-04-17T16:48:55.054Z,24.50
2018-04-17T16:51:23.552Z,23.84
2018-04-17T16:53:51.949Z,24.26
2018-04-17T16:56:20.371Z,24.74
2018-04-17T16:58:48.812Z,24.60
2018-04-17T17:01:17.226Z,24.64
2018-04-17T17:03:46.383Z,24.49
2018-04-17T17:06:14.814Z,24.20
2018-04-17T17:08:43.240Z,24.16
2018-04-17T17:11:12.413Z,23.96
2018-04-17T17:13:40.805Z,23.73
2018-04-17T17:16:09.197Z,23.91
2018-04-17T17:18:37.920Z,23.65
2018-04-17T17:21:06.314Z,23.69
2018-04-17T17:23:34.701Z,23.53
2018-04-17T17:26:03.118Z,23.23
2018-04-17T17:28:31.507Z,23.23
2018-04-17T17:30:59.904Z,23.22
2018-04-17T17:33:29.102Z,22.93
2018-04-17T17:35:58.257Z,22.84
2018-04-17T17:38:26.647Z,22.84
2018-04-17T17:40:55.041Z,22.65
2018-04-17T17:43:24.212Z,22.45
2018-04-17T17:45:52.590Z,22.26
2018-04-17T17:48:21.001Z,22.26
2018-04-17T17:50:49.406Z,22.10
2018-04-17T17:53:17.815Z,21.98
2018-04-17T17:55:46.970Z,21.76
2018-04-17T17:58:15.391Z,21.58
2018-04-17T18:00:43.799Z,21.50
2018-04-17T18:03:12.190Z,21.35
2018-04-17T18:05:40.572Z,21.14
2018-04-17T18:08:08.972Z,20.92
2018-04-17T18:10:37.366Z,20.75
2018-04-17T18:13:05.763Z,20.57
2018-04-17T18:15:34.169Z,20.46
2018-04-17T18:18:02.690Z,20.14
2018-04-17T18:20:31.078Z,19.87
2018-04-17T18:22:59.667Z,19.63
2018-04-17T18:25:28.073Z,19.37
2018-04-17T18:27:56.489Z,19.15
2018-04-17T18:30:24.893Z,18.90
2018-04-17T18:32:54.074Z,18.86
2018-04-17T18:35:22.475Z,18.67
2018-04-17T18:37:51.634Z,18.50
2018-04-17T18:40:20.053Z,18.30
2018-04-17T18:42:48.470Z,18.11
2018-04-17T18:45:16.961Z,17.92
2018-04-17T18:47:45.452Z,17.76
2018-04-17T18:50:13.873Z,17.61
2018-04-17T18:52:42.305Z,17.48
2018-04-17T18:55:11.779Z,17.31
2018-04-17T18:57:40.173Z,17.20
2018-04-17T19:00:09.370Z,17.14
2018-04-17T19:02:37.877Z,16.99
2018-04-17T19:05:06.294Z,16.95
2018-04-17T19:07:34.699Z,16.80
2018-04-17T19:10:03.135Z,16.68
2018-04-17T19:12:31.563Z,16.60
2018-04-17T19:15:00.089Z,16.51
2018-04-17T19:17:29.286Z,16.41
2018-04-17T19:19:58.590Z,16.32
2018-04-17T19:22:27.763Z,16.21
2018-04-17T19:24:56.143Z,16.12
2018-04-17T19:27:24.582Z,16.03
2018-04-17T19:29:52.989Z,15.91
2018-04-17T19:32:21.399Z,15.80
2018-04-17T19:34:49.881Z,15.65
2018-04-17T19:37:18.264Z,15.54
2018-04-17T19:39:46.674Z,15.46
2018-04-17T19:42:15.852Z,15.37
2018-04-17T19:44:44.243Z,15.39
2018-04-17T19:47:12.691Z,15.33
2018-04-17T19:49:41.260Z,15.37
2018-04-17T19:52:09.750Z,15.19
2018-04-17T19:54:38.132Z,15.20
2018-04-17T19:57:06.665Z,15.10
2018-04-17T19:59:35.063Z,15.04
2018-04-17T20:02:04.232Z,15.04
2018-04-17T20:04:32.650Z,15.16
2018-04-17T20:07:01.817Z,15.10
2018-04-17T20:09:30.209Z,14.92
2018-04-17T20:11:58.630Z,14.80
2018-04-17T20:14:27.836Z,14.70
2018-04-17T20:16:56.263Z,14.59
2018-04-17T20:19:24.682Z,14.53
2018-04-17T20:21:53.104Z,14.43
2018-04-17T20:24:22.247Z,14.43
2018-04-17T20:26:50.665Z,14.35
2018-04-17T20:29:19.875Z,14.28
2018-04-17T20:31:48.266Z,14.38
2018-04-17T20:34:16.663Z,14.61
2018-04-17T20:36:45.043Z,14.75
2018-04-17T20:39:13.483Z,14.63
2018-04-17T20:41:41.879Z,14.60
2018-04-17T20:44:11.066Z,14.78
2018-04-17T20:46:39.473Z,14.71
2018-04-17T20:49:07.923Z,14.70
2018-04-17T20:51:36.324Z,14.64
2018-04-17T20:54:05.486Z,14.67
2018-04-17T20:56:33.908Z,14.50
2018-04-17T20:59:03.056Z,14.31
2018-04-17T21:01:31.455Z,14.28
2018-04-17T21:03:59.861Z,14.24
2018-04-17T21:06:28.294Z,14.09
2018-04-17T21:08:56.743Z,13.96
2018-04-17T21:11:25.202Z,13.84
2018-04-17T21:13:53.640Z,13.81
2018-04-17T21:16:22.061Z,13.73
2018-04-17T21:18:50.500Z,13.73
2018-04-17T21:21:19.664Z,13.59
2018-04-17T21:23:48.130Z,13.47
2018-04-17T21:26:17.285Z,13.41
2018-04-17T21:28:45.746Z,13.36
2018-04-17T21:31:14.158Z,13.26
2018-04-17T21:33:42.590Z,13.17
2018-04-17T21:36:11.786Z,13.11
2018-04-17T21:38:40.181Z,13.13
2018-04-17T21:41:09.621Z,13.06
2018-04-17T21:43:38.775Z,12.99
2018-04-17T21:46:07.248Z,12.98
2018-04-17T21:48:35.679Z,12.87
2018-04-17T21:51:04.095Z,12.79
2018-04-17T21:53:32.512Z,12.72
2018-04-17T21:56:00.916Z,12.65
2018-04-17T21:58:29.305Z,12.54
2018-04-17T22:00:57.721Z,12.43
2018-04-17T22:03:26.194Z,12.44
2018-04-17T22:05:55.363Z,12.64
2018-04-17T22:08:23.776Z,12.72
2018-04-17T22:10:52.990Z,12.60
2018-04-17T22:13:22.149Z,12.48
2018-04-17T22:15:50.537Z,12.34
2018-04-17T22:18:18.942Z,12.23
2018-04-17T22:20:48.117Z,12.14
2018-04-17T22:23:16.505Z,12.16
2018-04-17T22:25:44.914Z,12.06
2018-04-17T22:28:14.102Z,11.99
2018-04-17T22:30:42.527Z,11.93
2018-04-17T22:33:10.902Z,11.87
2018-04-17T22:35:39.316Z,11.81
2018-04-17T22:38:07.727Z,11.78
2018-04-17T22:40:36.111Z,12.13
2018-04-17T22:43:04.500Z,12.02
2018-04-17T22:45:33.356Z,11.96
2018-04-17T22:48:01.781Z,11.83
2018-04-17T22:50:30.170Z,11.84
2018-04-17T22:52:59.369Z,11.83
2018-04-17T22:55:28.694Z,11.77
2018-04-17T22:57:57.104Z,11.69
2018-04-17T23:00:26.243Z,11.82
2018-04-17T23:02:54.649Z,11.91
2018-04-17T23:05:23.803Z,11.80
2018-04-17T23:07:52.321Z,11.76
2018-04-17T23:10:21.525Z,11.81
2018-04-17T23:12:50.682Z,11.83
2018-04-17T23:15:19.256Z,11.72
2018-04-17T23:17:47.722Z,11.61
2018-04-17T23:20:16.106Z,11.54
2018-04-17T23:22:44.498Z,11.41
2018-04-17T23:25:12.904Z,11.40
2018-04-17T23:27:41.290Z,11.29
2018-04-17T23:30:09.714Z,11.22
2018-04-17T23:32:38.903Z,11.16
2018-04-17T23:35:07.379Z,11.12
2018-04-17T23:37:35.773Z,11.11
2018-04-17T23:40:04.182Z,11.10
2018-04-17T23:42:33.338Z,11.27
2018-04-17T23:45:01.756Z,11.24
2018-04-17T23:47:30.910Z,11.24
2018-04-17T23:49:59.289Z,11.31
2018-04-17T23:52:27.722Z,11.26
2018-04-17T23:54:56.872Z,11.39
2018-04-17T23:57:25.273Z,11.38
2018-04-17T23:59:53.673Z,11.26
